Portada
METAR-TAF:

METAR-TAF

Aeroports :

Kashgar, Xina

latitud: 39-28N, longitud: 075-59E, altitud: 1291 m

Observació

L'informe es va fer fa 33 minuts, a les 03:00 UTC
Vent 4 kt del Oest/Nord-Oest
Temperatura 13°C
Humitat 51%
Pressió 1028 hPa
Visibilitat 10 km o més
sense núvols per sota de 1500 mi sense presència de cumulonimbus.

METAR: ZWSH 150300Z 29002MPS CAVOK 13/03 Q1028 NOSIG

Hora: 11:33 (03:33 UTC)

Pronòstic

L'informe es va fer fa 6 hores i 23 minuts, a les 21:10 UTC
Pronòstic vàlid del 15 a les 00 UTC al 15 a les 24 UTC
Vent 8 kt del Nord-Oest
Visibilitat 10 km o més
Escasses núvols a una alçada de 4000 ft

TAF: ZWSH 142110Z 1500/1524 31004MPS 9999 FEW040 TX19/1509Z TN12/1500Z

Observacions i pronòstics meteorològics de més de 4000 aeroports (METAR i TAF).

Les estacions disponibles són els punts grocs i vermells al mapa.

Posi el ratolí al punt desitjat per veure el nom de l'estació.

Feu clic per veure les observacions i els pronòstics meteorològics.

Per canviar el mapa: feu clic els botons verds amb una creu de color negre per apropar; al botó verd amb un guió per allunyar la imatge; o en les fletxes verdes per a mapes adjacents.


METAR-TAF: